sensor_id;sensor_type;location;lat;lon;timestamp;temperature;humidity
12111;DHT22;6119;52.372;8.990;2023-02-18T00:00:24;8.80;99.90
12111;DHT22;6119;52.372;8.990;2023-02-18T00:03:10;8.80;99.90
12111;DHT22;6119;52.372;8.990;2023-02-18T00:05:57;8.70;99.90
12111;DHT22;6119;52.372;8.990;2023-02-18T00:08:44;8.70;99.90
12111;DHT22;6119;52.372;8.990;2023-02-18T00:11:34;8.70;99.90
12111;DHT22;6119;52.372;8.990;2023-02-18T00:14:22;8.70;99.90
12111;DHT22;6119;52.372;8.990;2023-02-18T00:17:09;8.60;99.90
12111;DHT22;6119;52.372;8.990;2023-02-18T00:19:55;8.60;99.90
12111;DHT22;6119;52.372;8.990;2023-02-18T00:22:42;8.30;99.90
12111;DHT22;6119;52.372;8.990;2023-02-18T00:25:29;8.60;99.90
12111;DHT22;6119;52.372;8.990;2023-02-18T00:28:17;8.70;99.90
12111;DHT22;6119;52.372;8.990;2023-02-18T00:31:06;8.60;99.90
12111;DHT22;6119;52.372;8.990;2023-02-18T00:33:54;8.60;99.90
12111;DHT22;6119;52.372;8.990;2023-02-18T00:36:42;8.60;99.90
12111;DHT22;6119;52.372;8.990;2023-02-18T00:39:29;8.60;99.90
12111;DHT22;6119;52.372;8.990;2023-02-18T00:42:15;8.50;99.90
12111;DHT22;6119;52.372;8.990;2023-02-18T00:45:04;8.60;99.90
12111;DHT22;6119;52.372;8.990;2023-02-18T00:47:51;8.60;99.90
12111;DHT22;6119;52.372;8.990;2023-02-18T00:50:37;8.60;99.90
12111;DHT22;6119;52.372;8.990;2023-02-18T00:53:24;8.60;99.90
12111;DHT22;6119;52.372;8.990;2023-02-18T00:56:11;8.60;99.90
12111;DHT22;6119;52.372;8.990;2023-02-18T00:58:57;8.50;99.90
12111;DHT22;6119;52.372;8.990;2023-02-18T01:01:45;8.40;99.90
12111;DHT22;6119;52.372;8.990;2023-02-18T01:04:32;8.50;99.90
12111;DHT22;6119;52.372;8.990;2023-02-18T01:07:18;8.50;99.90
12111;DHT22;6119;52.372;8.990;2023-02-18T01:10:06;8.60;99.90
12111;DHT22;6119;52.372;8.990;2023-02-18T01:12:52;8.50;99.90
12111;DHT22;6119;52.372;8.990;2023-02-18T01:15:40;8.60;99.90
12111;DHT22;6119;52.372;8.990;2023-02-18T01:18:29;8.60;99.90
12111;DHT22;6119;52.372;8.990;2023-02-18T01:21:16;8.60;99.90
12111;DHT22;6119;52.372;8.990;2023-02-18T01:24:03;8.70;99.90
12111;DHT22;6119;52.372;8.990;2023-02-18T01:26:49;8.70;99.90
12111;DHT22;6119;52.372;8.990;2023-02-18T01:29:37;8.70;99.90
12111;DHT22;6119;52.372;8.990;2023-02-18T01:32:23;8.70;99.90
12111;DHT22;6119;52.372;8.990;2023-02-18T01:35:14;8.70;99.90
12111;DHT22;6119;52.372;8.990;2023-02-18T01:38:00;8.70;99.90
12111;DHT22;6119;52.372;8.990;2023-02-18T01:40:48;8.70;99.90
12111;DHT22;6119;52.372;8.990;2023-02-18T01:43:36;8.70;99.90
12111;DHT22;6119;52.372;8.990;2023-02-18T01:46:23;8.70;99.90
12111;DHT22;6119;52.372;8.990;2023-02-18T01:49:13;8.70;99.90
12111;DHT22;6119;52.372;8.990;2023-02-18T01:52:04;8.80;99.90
12111;DHT22;6119;52.372;8.990;2023-02-18T01:54:55;8.80;99.90
12111;DHT22;6119;52.372;8.990;2023-02-18T01:57:42;8.80;99.90
12111;DHT22;6119;52.372;8.990;2023-02-18T02:00:28;8.80;99.90
12111;DHT22;6119;52.372;8.990;2023-02-18T02:03:17;8.80;99.90
12111;DHT22;6119;52.372;8.990;2023-02-18T02:06:09;8.80;99.90
12111;DHT22;6119;52.372;8.990;2023-02-18T02:09:02;8.80;99.90
12111;DHT22;6119;52.372;8.990;2023-02-18T02:15:15;8.80;99.90
12111;DHT22;6119;52.372;8.990;2023-02-18T02:18:22;8.70;99.90
12111;DHT22;6119;52.372;8.990;2023-02-18T02:24:51;8.80;99.90
12111;DHT22;6119;52.372;8.990;2023-02-18T02:28:09;8.80;99.90
12111;DHT22;6119;52.372;8.990;2023-02-18T02:31:33;8.80;99.90
12111;DHT22;6119;52.372;8.990;2023-02-18T02:34:46;8.90;99.90
12111;DHT22;6119;52.372;8.990;2023-02-18T02:37:39;8.90;99.90
12111;DHT22;6119;52.372;8.990;2023-02-18T02:40:32;9.00;99.90
12111;DHT22;6119;52.372;8.990;2023-02-18T02:43:26;8.80;99.90
12111;DHT22;6119;52.372;8.990;2023-02-18T02:46:20;8.80;99.90
12111;DHT22;6119;52.372;8.990;2023-02-18T02:49:17;8.90;99.90
12111;DHT22;6119;52.372;8.990;2023-02-18T02:52:08;8.90;99.90
12111;DHT22;6119;52.372;8.990;2023-02-18T02:54:57;9.00;99.90
12111;DHT22;6119;52.372;8.990;2023-02-18T02:57:50;9.00;99.90
12111;DHT22;6119;52.372;8.990;2023-02-18T03:00:47;9.10;99.90
12111;DHT22;6119;52.372;8.990;2023-02-18T03:04:10;9.10;99.90
12111;DHT22;6119;52.372;8.990;2023-02-18T03:07:21;9.10;99.90
12111;DHT22;6119;52.372;8.990;2023-02-18T03:10:26;9.20;99.90
12111;DHT22;6119;52.372;8.990;2023-02-18T03:13:28;9.20;99.90
12111;DHT22;6119;52.372;8.990;2023-02-18T03:16:25;9.20;99.90
12111;DHT22;6119;52.372;8.990;2023-02-18T03:19:18;9.20;99.90
12111;DHT22;6119;52.372;8.990;2023-02-18T03:22:11;9.20;99.90
12111;DHT22;6119;52.372;8.990;2023-02-18T03:24:59;9.20;99.90
12111;DHT22;6119;52.372;8.990;2023-02-18T03:27:50;9.20;99.90
12111;DHT22;6119;52.372;8.990;2023-02-18T03:30:41;9.20;99.90
12111;DHT22;6119;52.372;8.990;2023-02-18T03:33:32;9.20;99.90
12111;DHT22;6119;52.372;8.990;2023-02-18T03:36:21;9.30;99.90
12111;DHT22;6119;52.372;8.990;2023-02-18T03:39:13;9.20;99.90
12111;DHT22;6119;52.372;8.990;2023-02-18T03:42:00;9.30;99.90
12111;DHT22;6119;52.372;8.990;2023-02-18T03:44:47;9.30;99.90
12111;DHT22;6119;52.372;8.990;2023-02-18T03:47:33;9.30;99.90
12111;DHT22;6119;52.372;8.990;2023-02-18T03:50:20;9.30;99.90
12111;DHT22;6119;52.372;8.990;2023-02-18T03:53:06;9.30;99.90
12111;DHT22;6119;52.372;8.990;2023-02-18T03:55:54;9.30;99.90
12111;DHT22;6119;52.372;8.990;2023-02-18T03:58:41;9.30;99.90
12111;DHT22;6119;52.372;8.990;2023-02-18T04:01:27;9.30;99.90
12111;DHT22;6119;52.372;8.990;2023-02-18T04:04:14;9.20;99.90
12111;DHT22;6119;52.372;8.990;2023-02-18T04:07:01;9.30;99.90
12111;DHT22;6119;52.372;8.990;2023-02-18T04:09:47;9.40;99.90
12111;DHT22;6119;52.372;8.990;2023-02-18T04:12:35;9.30;99.90
12111;DHT22;6119;52.372;8.990;2023-02-18T04:15:22;9.40;99.90
12111;DHT22;6119;52.372;8.990;2023-02-18T04:18:09;9.30;99.90
12111;DHT22;6119;52.372;8.990;2023-02-18T04:20:55;9.40;99.90
12111;DHT22;6119;52.372;8.990;2023-02-18T04:23:41;9.40;99.90
12111;DHT22;6119;52.372;8.990;2023-02-18T04:26:28;9.40;99.90
12111;DHT22;6119;52.372;8.990;2023-02-18T04:29:16;9.40;99.90
12111;DHT22;6119;52.372;8.990;2023-02-18T04:32:03;9.40;99.90
12111;DHT22;6119;52.372;8.990;2023-02-18T04:34:50;9.50;99.90
12111;DHT22;6119;52.372;8.990;2023-02-18T04:37:36;9.40;99.90
12111;DHT22;6119;52.372;8.990;2023-02-18T04:40:23;9.40;99.90
12111;DHT22;6119;52.372;8.990;2023-02-18T04:43:10;9.30;99.90
12111;DHT22;6119;52.372;8.990;2023-02-18T04:45:58;9.30;99.90
12111;DHT22;6119;52.372;8.990;2023-02-18T04:48:45;9.30;99.90
12111;DHT22;6119;52.372;8.990;2023-02-18T04:51:31;9.40;99.90
12111;DHT22;6119;52.372;8.990;2023-02-18T04:54:17;9.40;99.90
12111;DHT22;6119;52.372;8.990;2023-02-18T04:57:04;9.50;99.90
12111;DHT22;6119;52.372;8.990;2023-02-18T04:59:50;9.40;99.90
12111;DHT22;6119;52.372;8.990;2023-02-18T05:02:38;9.50;99.90
12111;DHT22;6119;52.372;8.990;2023-02-18T05:05:24;9.50;99.90
12111;DHT22;6119;52.372;8.990;2023-02-18T05:08:11;9.50;99.90
12111;DHT22;6119;52.372;8.990;2023-02-18T05:10:57;9.50;99.90
12111;DHT22;6119;52.372;8.990;2023-02-18T05:13:44;9.50;99.90
12111;DHT22;6119;52.372;8.990;2023-02-18T05:16:30;9.60;99.90
12111;DHT22;6119;52.372;8.990;2023-02-18T05:19:18;9.60;99.90
12111;DHT22;6119;52.372;8.990;2023-02-18T05:22:05;9.60;99.90
12111;DHT22;6119;52.372;8.990;2023-02-18T05:24:51;9.60;99.90
12111;DHT22;6119;52.372;8.990;2023-02-18T05:27:37;9.70;99.90
12111;DHT22;6119;52.372;8.990;2023-02-18T05:30:24;9.70;99.90
12111;DHT22;6119;52.372;8.990;2023-02-18T05:33:11;9.70;99.90
12111;DHT22;6119;52.372;8.990;2023-02-18T05:35:59;9.80;99.90
12111;DHT22;6119;52.372;8.990;2023-02-18T05:38:46;9.70;99.90
12111;DHT22;6119;52.372;8.990;2023-02-18T05:41:32;9.70;99.90
12111;DHT22;6119;52.372;8.990;2023-02-18T05:44:19;9.70;99.90
12111;DHT22;6119;52.372;8.990;2023-02-18T05:47:18;9.70;99.90
12111;DHT22;6119;52.372;8.990;2023-02-18T05:50:05;9.80;99.90
12111;DHT22;6119;52.372;8.990;2023-02-18T05:52:54;9.80;99.90
12111;DHT22;6119;52.372;8.990;2023-02-18T05:55:40;9.80;99.90
12111;DHT22;6119;52.372;8.990;2023-02-18T05:58:27;9.70;99.90
12111;DHT22;6119;52.372;8.990;2023-02-18T06:01:13;9.80;99.90
12111;DHT22;6119;52.372;8.990;2023-02-18T06:04:00;9.80;99.90
12111;DHT22;6119;52.372;8.990;2023-02-18T06:06:46;9.80;99.90
12111;DHT22;6119;52.372;8.990;2023-02-18T06:09:34;9.80;99.90
12111;DHT22;6119;52.372;8.990;2023-02-18T06:12:21;9.80;99.90
12111;DHT22;6119;52.372;8.990;2023-02-18T06:15:08;9.80;99.90
12111;DHT22;6119;52.372;8.990;2023-02-18T06:17:54;9.80;99.90
12111;DHT22;6119;52.372;8.990;2023-02-18T06:20:41;9.80;99.90
12111;DHT22;6119;52.372;8.990;2023-02-18T06:23:27;9.90;99.90
12111;DHT22;6119;52.372;8.990;2023-02-18T06:26:16;9.90;99.90
12111;DHT22;6119;52.372;8.990;2023-02-18T06:29:02;9.90;99.90
12111;DHT22;6119;52.372;8.990;2023-02-18T06:31:49;9.80;99.90
12111;DHT22;6119;52.372;8.990;2023-02-18T06:34:36;9.80;99.90
12111;DHT22;6119;52.372;8.990;2023-02-18T06:37:23;9.80;99.90
12111;DHT22;6119;52.372;8.990;2023-02-18T06:40:09;9.80;99.90
12111;DHT22;6119;52.372;8.990;2023-02-18T06:42:57;9.80;99.90
12111;DHT22;6119;52.372;8.990;2023-02-18T06:45:44;9.80;99.90
12111;DHT22;6119;52.372;8.990;2023-02-18T06:48:32;9.80;99.90
12111;DHT22;6119;52.372;8.990;2023-02-18T06:51:18;9.90;99.90
12111;DHT22;6119;52.372;8.990;2023-02-18T06:54:05;9.90;99.90
12111;DHT22;6119;52.372;8.990;2023-02-18T06:56:51;9.90;99.90
12111;DHT22;6119;52.372;8.990;2023-02-18T06:59:39;10.00;99.90
12111;DHT22;6119;52.372;8.990;2023-02-18T07:02:26;10.10;99.90
12111;DHT22;6119;52.372;8.990;2023-02-18T07:05:13;10.20;99.90
12111;DHT22;6119;52.372;8.990;2023-02-18T07:08:00;10.30;99.90
12111;DHT22;6119;52.372;8.990;2023-02-18T07:10:46;10.30;99.90
12111;DHT22;6119;52.372;8.990;2023-02-18T07:13:33;10.30;99.90
12111;DHT22;6119;52.372;8.990;2023-02-18T07:16:21;10.40;99.90
12111;DHT22;6119;52.372;8.990;2023-02-18T07:19:07;10.40;99.90
12111;DHT22;6119;52.372;8.990;2023-02-18T07:21:54;10.50;99.90
12111;DHT22;6119;52.372;8.990;2023-02-18T07:24:42;10.50;99.90
12111;DHT22;6119;52.372;8.990;2023-02-18T07:27:29;10.60;99.90
12111;DHT22;6119;52.372;8.990;2023-02-18T07:33:03;10.60;99.90
12111;DHT22;6119;52.372;8.990;2023-02-18T07:35:52;10.60;99.90
12111;DHT22;6119;52.372;8.990;2023-02-18T07:38:39;10.60;99.90
12111;DHT22;6119;52.372;8.990;2023-02-18T07:41:27;10.60;99.90
12111;DHT22;6119;52.372;8.990;2023-02-18T07:44:13;10.70;99.90
12111;DHT22;6119;52.372;8.990;2023-02-18T07:47:00;10.70;99.90
12111;DHT22;6119;52.372;8.990;2023-02-18T07:49:48;10.70;99.90
12111;DHT22;6119;52.372;8.990;2023-02-18T07:52:35;10.70;99.90
12111;DHT22;6119;52.372;8.990;2023-02-18T07:55:21;10.80;99.90
12111;DHT22;6119;52.372;8.990;2023-02-18T07:58:08;10.80;99.90
12111;DHT22;6119;52.372;8.990;2023-02-18T08:00:54;10.80;99.90
12111;DHT22;6119;52.372;8.990;2023-02-18T08:03:41;10.80;99.90
12111;DHT22;6119;52.372;8.990;2023-02-18T08:06:30;10.90;99.90
12111;DHT22;6119;52.372;8.990;2023-02-18T08:09:18;10.80;99.90
12111;DHT22;6119;52.372;8.990;2023-02-18T08:12:05;9.00;99.90
12111;DHT22;6119;52.372;8.990;2023-02-18T08:14:51;10.90;99.90
12111;DHT22;6119;52.372;8.990;2023-02-18T08:17:38;10.90;99.90
12111;DHT22;6119;52.372;8.990;2023-02-18T08:20:24;10.90;99.90
12111;DHT22;6119;52.372;8.990;2023-02-18T08:23:15;10.90;99.90
12111;DHT22;6119;52.372;8.990;2023-02-18T08:26:02;10.90;99.90
12111;DHT22;6119;52.372;8.990;2023-02-18T08:28:48;10.90;99.90
12111;DHT22;6119;52.372;8.990;2023-02-18T08:31:35;10.90;99.90
12111;DHT22;6119;52.372;8.990;2023-02-18T08:34:22;10.90;99.90
12111;DHT22;6119;52.372;8.990;2023-02-18T08:37:08;11.00;99.90
12111;DHT22;6119;52.372;8.990;2023-02-18T08:39:56;11.00;99.90
12111;DHT22;6119;52.372;8.990;2023-02-18T08:42:42;11.00;99.90
12111;DHT22;6119;52.372;8.990;2023-02-18T08:45:29;11.00;99.90
12111;DHT22;6119;52.372;8.990;2023-02-18T08:48:15;11.00;99.90
12111;DHT22;6119;52.372;8.990;2023-02-18T08:51:12;11.10;99.90
12111;DHT22;6119;52.372;8.990;2023-02-18T08:53:59;11.10;99.90
12111;DHT22;6119;52.372;8.990;2023-02-18T08:56:48;11.10;99.90
12111;DHT22;6119;52.372;8.990;2023-02-18T08:59:35;11.10;99.90
12111;DHT22;6119;52.372;8.990;2023-02-18T09:02:22;11.10;99.90
12111;DHT22;6119;52.372;8.990;2023-02-18T09:05:08;11.10;99.90
12111;DHT22;6119;52.372;8.990;2023-02-18T09:07:55;11.10;99.90
12111;DHT22;6119;52.372;8.990;2023-02-18T09:10:42;11.20;99.90
12111;DHT22;6119;52.372;8.990;2023-02-18T09:13:32;11.10;99.90
12111;DHT22;6119;52.372;8.990;2023-02-18T09:16:19;11.20;99.90
12111;DHT22;6119;52.372;8.990;2023-02-18T09:19:05;11.20;99.90
12111;DHT22;6119;52.372;8.990;2023-02-18T09:21:52;11.20;99.90
12111;DHT22;6119;52.372;8.990;2023-02-18T09:24:44;11.20;99.90
12111;DHT22;6119;52.372;8.990;2023-02-18T09:27:30;11.20;99.90
12111;DHT22;6119;52.372;8.990;2023-02-18T09:30:18;11.10;99.90
12111;DHT22;6119;52.372;8.990;2023-02-18T09:33:05;11.20;99.90
12111;DHT22;6119;52.372;8.990;2023-02-18T09:35:52;11.10;99.90
12111;DHT22;6119;52.372;8.990;2023-02-18T09:38:38;11.20;99.90
12111;DHT22;6119;52.372;8.990;2023-02-18T09:41:30;11.20;99.90
12111;DHT22;6119;52.372;8.990;2023-02-18T09:44:22;11.20;99.90
12111;DHT22;6119;52.372;8.990;2023-02-18T09:47:14;11.20;99.90
12111;DHT22;6119;52.372;8.990;2023-02-18T09:50:06;11.30;99.90
12111;DHT22;6119;52.372;8.990;2023-02-18T09:52:54;11.40;99.90
12111;DHT22;6119;52.372;8.990;2023-02-18T09:55:41;11.40;99.90
12111;DHT22;6119;52.372;8.990;2023-02-18T09:58:32;11.30;99.90
12111;DHT22;6119;52.372;8.990;2023-02-18T10:01:24;11.30;99.90
12111;DHT22;6119;52.372;8.990;2023-02-18T10:04:18;11.20;99.90
12111;DHT22;6119;52.372;8.990;2023-02-18T10:07:18;11.30;99.90
12111;DHT22;6119;52.372;8.990;2023-02-18T10:13:02;11.20;99.90
12111;DHT22;6119;52.372;8.990;2023-02-18T10:15:49;11.30;99.90
12111;DHT22;6119;52.372;8.990;2023-02-18T10:18:40;11.30;99.90
12111;DHT22;6119;52.372;8.990;2023-02-18T10:21:32;11.20;99.90
12111;DHT22;6119;52.372;8.990;2023-02-18T10:24:27;11.30;99.90
12111;DHT22;6119;52.372;8.990;2023-02-18T10:27:20;11.30;99.90
12111;DHT22;6119;52.372;8.990;2023-02-18T10:30:21;11.30;99.90
12111;DHT22;6119;52.372;8.990;2023-02-18T10:33:21;11.30;99.90
12111;DHT22;6119;52.372;8.990;2023-02-18T10:36:20;11.30;99.90
12111;DHT22;6119;52.372;8.990;2023-02-18T10:42:28;11.30;99.90
12111;DHT22;6119;52.372;8.990;2023-02-18T10:45:27;11.30;99.90
12111;DHT22;6119;52.372;8.990;2023-02-18T10:48:34;11.30;99.90
12111;DHT22;6119;52.372;8.990;2023-02-18T10:51:27;11.40;99.90
12111;DHT22;6119;52.372;8.990;2023-02-18T10:54:15;11.40;99.90
12111;DHT22;6119;52.372;8.990;2023-02-18T10:57:02;11.30;99.90
12111;DHT22;6119;52.372;8.990;2023-02-18T10:59:58;11.30;99.90
12111;DHT22;6119;52.372;8.990;2023-02-18T11:02:45;11.30;99.90
12111;DHT22;6119;52.372;8.990;2023-02-18T11:05:34;11.30;99.90
12111;DHT22;6119;52.372;8.990;2023-02-18T11:08:24;11.30;99.90
12111;DHT22;6119;52.372;8.990;2023-02-18T11:11:16;11.30;99.90
12111;DHT22;6119;52.372;8.990;2023-02-18T11:14:05;11.40;99.90
12111;DHT22;6119;52.372;8.990;2023-02-18T11:16:52;11.40;99.90
12111;DHT22;6119;52.372;8.990;2023-02-18T11:19:40;11.40;99.90
12111;DHT22;6119;52.372;8.990;2023-02-18T11:22:29;11.40;99.90
12111;DHT22;6119;52.372;8.990;2023-02-18T11:25:22;11.40;99.90
12111;DHT22;6119;52.372;8.990;2023-02-18T11:28:27;11.30;99.90
12111;DHT22;6119;52.372;8.990;2023-02-18T11:31:20;11.30;99.90
12111;DHT22;6119;52.372;8.990;2023-02-18T11:34:14;11.30;99.90
12111;DHT22;6119;52.372;8.990;2023-02-18T11:37:09;11.20;99.90
12111;DHT22;6119;52.372;8.990;2023-02-18T11:39:56;11.30;99.90
12111;DHT22;6119;52.372;8.990;2023-02-18T11:42:42;11.20;99.90
12111;DHT22;6119;52.372;8.990;2023-02-18T11:45:32;11.20;99.90
12111;DHT22;6119;52.372;8.990;2023-02-18T11:48:22;11.20;99.90
12111;DHT22;6119;52.372;8.990;2023-02-18T11:51:16;11.10;99.90
12111;DHT22;6119;52.372;8.990;2023-02-18T11:54:04;11.00;99.90
12111;DHT22;6119;52.372;8.990;2023-02-18T11:56:56;11.00;99.90
12111;DHT22;6119;52.372;8.990;2023-02-18T11:59:43;10.90;99.90
12111;DHT22;6119;52.372;8.990;2023-02-18T12:02:33;11.00;99.90
12111;DHT22;6119;52.372;8.990;2023-02-18T12:05:23;10.90;99.90
12111;DHT22;6119;52.372;8.990;2023-02-18T12:08:13;10.90;99.90
12111;DHT22;6119;52.372;8.990;2023-02-18T12:11:08;10.90;99.90
12111;DHT22;6119;52.372;8.990;2023-02-18T12:13:57;10.90;99.90
12111;DHT22;6119;52.372;8.990;2023-02-18T12:20:13;10.70;99.90
12111;DHT22;6119;52.372;8.990;2023-02-18T12:23:05;10.80;99.90
12111;DHT22;6119;52.372;8.990;2023-02-18T12:26:02;10.80;99.90
12111;DHT22;6119;52.372;8.990;2023-02-18T12:29:19;10.80;99.90
12111;DHT22;6119;52.372;8.990;2023-02-18T12:32:24;10.90;99.90
12111;DHT22;6119;52.372;8.990;2023-02-18T12:35:36;10.90;99.90
12111;DHT22;6119;52.372;8.990;2023-02-18T12:38:50;10.90;99.90
12111;DHT22;6119;52.372;8.990;2023-02-18T12:41:48;10.80;99.90
12111;DHT22;6119;52.372;8.990;2023-02-18T12:44:40;10.90;99.90
12111;DHT22;6119;52.372;8.990;2023-02-18T12:47:50;10.80;99.90
12111;DHT22;6119;52.372;8.990;2023-02-18T12:50:53;10.80;99.90
12111;DHT22;6119;52.372;8.990;2023-02-18T12:53:52;10.90;99.90
12111;DHT22;6119;52.372;8.990;2023-02-18T12:56:56;10.90;99.90
12111;DHT22;6119;52.372;8.990;2023-02-18T12:59:56;10.90;99.90
12111;DHT22;6119;52.372;8.990;2023-02-18T13:03:03;10.90;99.90
12111;DHT22;6119;52.372;8.990;2023-02-18T13:06:03;10.90;99.90
12111;DHT22;6119;52.372;8.990;2023-02-18T13:09:01;10.90;99.90
12111;DHT22;6119;52.372;8.990;2023-02-18T13:11:56;10.90;99.90
12111;DHT22;6119;52.372;8.990;2023-02-18T13:14:48;10.90;99.90
12111;DHT22;6119;52.372;8.990;2023-02-18T13:17:42;10.80;99.90
12111;DHT22;6119;52.372;8.990;2023-02-18T13:20:34;10.80;99.90
12111;DHT22;6119;52.372;8.990;2023-02-18T13:23:27;11.00;99.90
12111;DHT22;6119;52.372;8.990;2023-02-18T13:26:16;11.00;99.90
12111;DHT22;6119;52.372;8.990;2023-02-18T13:29:14;10.90;99.90
12111;DHT22;6119;52.372;8.990;2023-02-18T13:32:09;10.90;99.90
12111;DHT22;6119;52.372;8.990;2023-02-18T13:35:03;10.90;99.90
12111;DHT22;6119;52.372;8.990;2023-02-18T13:38:07;10.90;99.90
12111;DHT22;6119;52.372;8.990;2023-02-18T13:40:59;10.90;99.90
12111;DHT22;6119;52.372;8.990;2023-02-18T13:43:46;10.90;99.90
12111;DHT22;6119;52.372;8.990;2023-02-18T13:46:46;10.90;99.90
12111;DHT22;6119;52.372;8.990;2023-02-18T13:49:34;10.80;99.90
12111;DHT22;6119;52.372;8.990;2023-02-18T13:52:23;10.80;99.90
12111;DHT22;6119;52.372;8.990;2023-02-18T13:55:18;10.80;99.90
12111;DHT22;6119;52.372;8.990;2023-02-18T13:58:13;10.70;99.90
12111;DHT22;6119;52.372;8.990;2023-02-18T14:01:04;9.60;99.90
12111;DHT22;6119;52.372;8.990;2023-02-18T14:03:58;10.80;99.90
12111;DHT22;6119;52.372;8.990;2023-02-18T14:07:26;10.70;99.90
12111;DHT22;6119;52.372;8.990;2023-02-18T14:10:31;10.80;99.90
12111;DHT22;6119;52.372;8.990;2023-02-18T14:13:38;10.90;99.90
12111;DHT22;6119;52.372;8.990;2023-02-18T14:16:25;10.90;99.90
12111;DHT22;6119;52.372;8.990;2023-02-18T14:19:27;10.90;99.90
12111;DHT22;6119;52.372;8.990;2023-02-18T14:22:27;10.90;99.90
12111;DHT22;6119;52.372;8.990;2023-02-18T14:25:21;10.80;99.90
12111;DHT22;6119;52.372;8.990;2023-02-18T14:28:38;10.90;99.90
12111;DHT22;6119;52.372;8.990;2023-02-18T14:31:34;10.90;99.90
12111;DHT22;6119;52.372;8.990;2023-02-18T14:34:55;10.80;99.90
12111;DHT22;6119;52.372;8.990;2023-02-18T14:37:56;10.90;99.90
12111;DHT22;6119;52.372;8.990;2023-02-18T14:40:53;10.90;99.90
12111;DHT22;6119;52.372;8.990;2023-02-18T14:44:02;10.90;99.90
12111;DHT22;6119;52.372;8.990;2023-02-18T14:47:04;10.90;99.90
12111;DHT22;6119;52.372;8.990;2023-02-18T14:49:54;10.90;99.90
12111;DHT22;6119;52.372;8.990;2023-02-18T14:52:46;11.00;99.90
12111;DHT22;6119;52.372;8.990;2023-02-18T14:55:37;10.90;99.90
12111;DHT22;6119;52.372;8.990;2023-02-18T14:58:29;10.90;99.90
12111;DHT22;6119;52.372;8.990;2023-02-18T15:01:19;10.90;99.90
12111;DHT22;6119;52.372;8.990;2023-02-18T15:04:06;11.00;99.90
12111;DHT22;6119;52.372;8.990;2023-02-18T15:07:00;11.00;99.90
12111;DHT22;6119;52.372;8.990;2023-02-18T15:09:48;10.90;99.90
12111;DHT22;6119;52.372;8.990;2023-02-18T15:12:36;10.90;99.90
12111;DHT22;6119;52.372;8.990;2023-02-18T15:15:24;11.00;99.90
12111;DHT22;6119;52.372;8.990;2023-02-18T15:18:19;11.00;99.90
12111;DHT22;6119;52.372;8.990;2023-02-18T15:21:08;11.00;99.90
12111;DHT22;6119;52.372;8.990;2023-02-18T15:23:59;11.00;99.90
12111;DHT22;6119;52.372;8.990;2023-02-18T15:26:49;11.00;99.90
12111;DHT22;6119;52.372;8.990;2023-02-18T15:29:38;11.00;99.90
12111;DHT22;6119;52.372;8.990;2023-02-18T15:32:26;11.00;99.90
12111;DHT22;6119;52.372;8.990;2023-02-18T15:35:15;10.90;99.90
12111;DHT22;6119;52.372;8.990;2023-02-18T15:38:02;11.00;99.90
12111;DHT22;6119;52.372;8.990;2023-02-18T15:40:50;11.00;99.90
12111;DHT22;6119;52.372;8.990;2023-02-18T15:43:37;11.00;99.90
12111;DHT22;6119;52.372;8.990;2023-02-18T15:46:25;11.00;99.90
12111;DHT22;6119;52.372;8.990;2023-02-18T15:49:14;11.00;99.90
12111;DHT22;6119;52.372;8.990;2023-02-18T15:52:03;11.10;99.90
12111;DHT22;6119;52.372;8.990;2023-02-18T15:54:51;11.00;99.90
12111;DHT22;6119;52.372;8.990;2023-02-18T15:57:39;11.00;99.90
12111;DHT22;6119;52.372;8.990;2023-02-18T16:00:29;11.10;99.90
12111;DHT22;6119;52.372;8.990;2023-02-18T16:03:22;11.00;99.90
12111;DHT22;6119;52.372;8.990;2023-02-18T16:06:11;11.00;99.90
12111;DHT22;6119;52.372;8.990;2023-02-18T16:09:00;11.10;99.90
12111;DHT22;6119;52.372;8.990;2023-02-18T16:11:49;11.10;99.90
12111;DHT22;6119;52.372;8.990;2023-02-18T16:14:42;11.00;99.90
12111;DHT22;6119;52.372;8.990;2023-02-18T16:17:31;11.00;99.90
12111;DHT22;6119;52.372;8.990;2023-02-18T16:20:26;11.00;99.90
12111;DHT22;6119;52.372;8.990;2023-02-18T16:23:14;11.10;99.90
12111;DHT22;6119;52.372;8.990;2023-02-18T16:26:18;11.10;99.90
12111;DHT22;6119;52.372;8.990;2023-02-18T16:29:10;11.10;99.90
12111;DHT22;6119;52.372;8.990;2023-02-18T16:31:58;11.00;99.90
12111;DHT22;6119;52.372;8.990;2023-02-18T16:34:45;11.00;99.90
12111;DHT22;6119;52.372;8.990;2023-02-18T16:37:34;11.00;99.90
12111;DHT22;6119;52.372;8.990;2023-02-18T16:40:30;11.00;99.90
12111;DHT22;6119;52.372;8.990;2023-02-18T16:43:19;10.90;99.90
12111;DHT22;6119;52.372;8.990;2023-02-18T16:46:08;11.00;99.90
12111;DHT22;6119;52.372;8.990;2023-02-18T16:48:55;11.00;99.90
12111;DHT22;6119;52.372;8.990;2023-02-18T16:51:42;11.00;99.90
12111;DHT22;6119;52.372;8.990;2023-02-18T16:54:30;11.00;99.90
12111;DHT22;6119;52.372;8.990;2023-02-18T16:57:16;10.90;99.90
12111;DHT22;6119;52.372;8.990;2023-02-18T17:00:03;10.90;99.90
12111;DHT22;6119;52.372;8.990;2023-02-18T17:02:53;11.00;99.90
12111;DHT22;6119;52.372;8.990;2023-02-18T17:05:40;11.00;99.90
12111;DHT22;6119;52.372;8.990;2023-02-18T17:08:27;11.00;99.90
12111;DHT22;6119;52.372;8.990;2023-02-18T17:11:18;11.00;99.90
12111;DHT22;6119;52.372;8.990;2023-02-18T17:14:09;11.00;99.90
12111;DHT22;6119;52.372;8.990;2023-02-18T17:16:56;11.00;99.90
12111;DHT22;6119;52.372;8.990;2023-02-18T17:19:43;11.00;99.90
12111;DHT22;6119;52.372;8.990;2023-02-18T17:22:29;11.00;99.90
12111;DHT22;6119;52.372;8.990;2023-02-18T17:25:19;11.00;99.90
12111;DHT22;6119;52.372;8.990;2023-02-18T17:28:07;10.90;99.90
12111;DHT22;6119;52.372;8.990;2023-02-18T17:30:56;11.00;99.90
12111;DHT22;6119;52.372;8.990;2023-02-18T17:33:43;10.90;99.90
12111;DHT22;6119;52.372;8.990;2023-02-18T17:36:30;10.90;99.90
12111;DHT22;6119;52.372;8.990;2023-02-18T17:39:17;10.90;99.90
12111;DHT22;6119;52.372;8.990;2023-02-18T17:42:08;10.90;99.90
12111;DHT22;6119;52.372;8.990;2023-02-18T17:44:56;10.90;99.90
12111;DHT22;6119;52.372;8.990;2023-02-18T17:47:43;10.90;99.90
12111;DHT22;6119;52.372;8.990;2023-02-18T17:50:30;10.90;99.90
12111;DHT22;6119;52.372;8.990;2023-02-18T17:53:18;10.90;99.90
12111;DHT22;6119;52.372;8.990;2023-02-18T17:56:05;10.90;99.90
12111;DHT22;6119;52.372;8.990;2023-02-18T17:58:51;10.80;99.90
12111;DHT22;6119;52.372;8.990;2023-02-18T18:01:40;10.80;99.90
12111;DHT22;6119;52.372;8.990;2023-02-18T18:04:27;10.80;99.90
12111;DHT22;6119;52.372;8.990;2023-02-18T18:07:14;10.80;99.90
12111;DHT22;6119;52.372;8.990;2023-02-18T18:10:00;10.80;99.90
12111;DHT22;6119;52.372;8.990;2023-02-18T18:12:47;10.80;99.90
12111;DHT22;6119;52.372;8.990;2023-02-18T18:15:37;10.80;99.90
12111;DHT22;6119;52.372;8.990;2023-02-18T18:18:26;10.70;99.90
12111;DHT22;6119;52.372;8.990;2023-02-18T18:21:17;10.70;99.90
12111;DHT22;6119;52.372;8.990;2023-02-18T18:24:06;10.70;99.90
12111;DHT22;6119;52.372;8.990;2023-02-18T18:26:52;10.70;99.90
12111;DHT22;6119;52.372;8.990;2023-02-18T18:29:39;10.70;99.90
12111;DHT22;6119;52.372;8.990;2023-02-18T18:32:26;10.70;99.90
12111;DHT22;6119;52.372;8.990;2023-02-18T18:35:20;10.70;99.90
12111;DHT22;6119;52.372;8.990;2023-02-18T18:38:07;10.70;99.90
12111;DHT22;6119;52.372;8.990;2023-02-18T18:40:54;10.70;99.90